Current | Forecast
Updated: 10:40 AM JST on October 19, 2017
Observed at Oshima Airport, Japan
Temperature 54°F
Humidity 100%
Dew Point 54°F
Wind NNE at 37 mph
Pressure 30.09 in (Steady)
Conditions Heavy Rain
Visibility 0.9 miles
UV 3 out of 16
Clouds (FEW) : 400 ft
Mostly Cloudy (BKN) : 700 ft
Mostly Cloudy (BKN) : 900 ft
Yesterday's Maximum 68°F
Yesterday's Minimum 63°F approx.
Yesterday's Cooling Degree Days N/A approx.
Sunrise5:54 AM JST
Sunset5:05 PM JST
Moon Rise4:59 AM JST
Moon Set5:04 PM JST
Moon PhaseMoon Phase
Waning Crescent
Raw METARSPECI RJTO 190140Z 03032KT 1500 +RA BR FEW004 BKN007 BKN009 12/12 Q1019 RMK 1ST004 5ST007 6ST009 A3009 P/FR


Monday
. High: 28° F.
Tuesday
. High: 68° F.
Wednesday
. High: 66° F.
Thursday
. High: 64° F.
Friday
. High: 28° F.
Saturday
. High: 33° F.
Sunday
. High: 66° F.
Monday
. High: 32° F.

Units: English | Metric

Find the Weather for any City, State or Zipcode, or Country:

U.S. State List | Severe Weather | Tropical Storms | Ski Conditions
United States | Canada | Central America | South America | Asia | Europe | Australia | Africa | Islands

Weather Underground

© Copyright 2017
The Weather Company, LLC